sensor_id;sensor_type;location;lat;lon;timestamp;pressure;altitude;pressure_sealevel;temperature;humidity
69796;BME280;57073;45.650;9.612;2022-12-07T00:07:59;99028.75;;;4.03;70.63
69796;BME280;57073;45.650;9.612;2022-12-07T00:17:59;99017.94;;;4.05;70.71
69796;BME280;57073;45.650;9.612;2022-12-07T00:28:00;99007.03;;;4.00;70.14
69796;BME280;57073;45.650;9.612;2022-12-07T00:38:00;99005.28;;;3.92;69.64
69796;BME280;57073;45.650;9.612;2022-12-07T00:48:00;98993.47;;;3.95;68.51
69796;BME280;57073;45.650;9.612;2022-12-07T00:58:01;98979.28;;;3.88;69.89
69796;BME280;57073;45.650;9.612;2022-12-07T01:08:02;98991.00;;;3.93;69.20
69796;BME280;57073;45.650;9.612;2022-12-07T01:18:03;98989.66;;;3.97;69.54
69796;BME280;57073;45.650;9.612;2022-12-07T01:28:03;98986.44;;;3.87;69.22
69796;BME280;57073;45.650;9.612;2022-12-07T01:38:04;98990.81;;;3.80;69.32
69796;BME280;57073;45.650;9.612;2022-12-07T01:48:05;98981.16;;;3.64;71.09
69796;BME280;57073;45.650;9.612;2022-12-07T01:58:07;98981.44;;;3.31;71.22
69796;BME280;57073;45.650;9.612;2022-12-07T02:08:10;98983.34;;;3.22;71.84
69796;BME280;57073;45.650;9.612;2022-12-07T02:39:00;98968.31;;;3.15;71.14
69796;BME280;57073;45.650;9.612;2022-12-07T02:49:03;98958.78;;;3.29;71.40
69796;BME280;57073;45.650;9.612;2022-12-07T03:09:37;98954.72;;;3.18;71.08
69796;BME280;57073;45.650;9.612;2022-12-07T03:19:42;98957.28;;;3.26;70.83
69796;BME280;57073;45.650;9.612;2022-12-07T03:30:09;98936.44;;;3.23;69.59
69796;BME280;57073;45.650;9.612;2022-12-07T03:50:17;98936.16;;;2.95;70.70
69796;BME280;57073;45.650;9.612;2022-12-07T04:00:21;98926.19;;;2.97;70.51
69796;BME280;57073;45.650;9.612;2022-12-07T04:10:22;98919.66;;;3.07;70.92
69796;BME280;57073;45.650;9.612;2022-12-07T04:20:22;98912.81;;;3.13;70.35
69796;BME280;57073;45.650;9.612;2022-12-07T04:30:23;98910.19;;;2.90;70.54
69796;BME280;57073;45.650;9.612;2022-12-07T04:40:23;98908.59;;;3.04;70.65
69796;BME280;57073;45.650;9.612;2022-12-07T04:50:23;98907.88;;;3.10;70.22
69796;BME280;57073;45.650;9.612;2022-12-07T05:00:24;98896.38;;;3.18;70.03
69796;BME280;57073;45.650;9.612;2022-12-07T05:10:24;98905.88;;;3.12;69.64
69796;BME280;57073;45.650;9.612;2022-12-07T05:20:24;98900.88;;;3.17;68.95
69796;BME280;57073;45.650;9.612;2022-12-07T05:30:27;98908.94;;;3.39;69.04
69796;BME280;57073;45.650;9.612;2022-12-07T05:40:27;98919.59;;;3.54;68.75
69796;BME280;57073;45.650;9.612;2022-12-07T05:50:28;98914.66;;;3.65;68.02
69796;BME280;57073;45.650;9.612;2022-12-07T06:00:29;98908.13;;;3.53;67.38
69796;BME280;57073;45.650;9.612;2022-12-07T06:10:29;98909.00;;;3.69;66.89
69796;BME280;57073;45.650;9.612;2022-12-07T06:20:29;98924.00;;;3.76;66.25
69796;BME280;57073;45.650;9.612;2022-12-07T06:30:30;98926.13;;;3.81;66.06
69796;BME280;57073;45.650;9.612;2022-12-07T06:40:30;98927.84;;;3.74;65.54
69796;BME280;57073;45.650;9.612;2022-12-07T06:50:30;98925.38;;;3.87;65.38
69796;BME280;57073;45.650;9.612;2022-12-07T07:00:31;98932.97;;;3.90;65.34
69796;BME280;57073;45.650;9.612;2022-12-07T07:10:31;98924.09;;;3.98;63.78
69796;BME280;57073;45.650;9.612;2022-12-07T07:20:32;98938.72;;;4.23;63.73
69796;BME280;57073;45.650;9.612;2022-12-07T07:30:32;98951.63;;;4.78;61.40
69796;BME280;57073;45.650;9.612;2022-12-07T07:40:32;98950.94;;;4.91;61.71
69796;BME280;57073;45.650;9.612;2022-12-07T07:50:33;98958.03;;;5.48;61.57
69796;BME280;57073;45.650;9.612;2022-12-07T08:00:33;98966.50;;;6.15;59.50
69796;BME280;57073;45.650;9.612;2022-12-07T08:10:33;98973.88;;;6.55;57.94
69796;BME280;57073;45.650;9.612;2022-12-07T08:20:36;98983.88;;;7.07;57.68
69796;BME280;57073;45.650;9.612;2022-12-07T08:30:36;98972.81;;;7.37;56.84
69796;BME280;57073;45.650;9.612;2022-12-07T08:40:37;98982.72;;;7.57;55.35
69796;BME280;57073;45.650;9.612;2022-12-07T08:50:37;98983.31;;;7.85;54.34
69796;BME280;57073;45.650;9.612;2022-12-07T09:00:38;98992.53;;;8.16;55.67
69796;BME280;57073;45.650;9.612;2022-12-07T09:10:39;98998.50;;;7.92;54.48
69796;BME280;57073;45.650;9.612;2022-12-07T09:20:39;99001.81;;;7.60;56.43
69796;BME280;57073;45.650;9.612;2022-12-07T09:30:46;98997.88;;;7.43;56.22
69796;BME280;57073;45.650;9.612;2022-12-07T09:40:47;98997.03;;;7.16;55.04
69796;BME280;57073;45.650;9.612;2022-12-07T09:50:49;98981.84;;;7.16;55.76
69796;BME280;57073;45.650;9.612;2022-12-07T10:00:54;98973.03;;;7.22;54.68
69796;BME280;57073;45.650;9.612;2022-12-07T10:10:56;98967.50;;;7.24;54.92
69796;BME280;57073;45.650;9.612;2022-12-07T10:31:15;98939.56;;;7.33;55.05
69796;BME280;57073;45.650;9.612;2022-12-07T10:41:16;98935.06;;;7.40;58.03
69796;BME280;57073;45.650;9.612;2022-12-07T10:51:26;98931.97;;;7.57;58.30
69796;BME280;57073;45.650;9.612;2022-12-07T11:22:19;98907.53;;;7.53;61.46
69796;BME280;57073;45.650;9.612;2022-12-07T11:32:45;98894.34;;;7.78;64.83
69796;BME280;57073;45.650;9.612;2022-12-07T11:42:56;98883.81;;;7.90;63.65
69796;BME280;57073;45.650;9.612;2022-12-07T11:53:05;98882.06;;;7.51;66.79
69796;BME280;57073;45.650;9.612;2022-12-07T12:03:21;98881.41;;;7.75;67.33
69796;BME280;57073;45.650;9.612;2022-12-07T12:24:16;98855.81;;;7.27;68.97
69796;BME280;57073;45.650;9.612;2022-12-07T12:35:20;98856.00;;;7.33;68.96
69796;BME280;57073;45.650;9.612;2022-12-07T12:45:11;98848.78;;;7.60;68.27
69796;BME280;57073;45.650;9.612;2022-12-07T12:55:18;98831.13;;;7.32;69.80
69796;BME280;57073;45.650;9.612;2022-12-07T13:05:26;98838.91;;;7.54;68.65
69796;BME280;57073;45.650;9.612;2022-12-07T13:15:33;98829.47;;;7.58;68.20
69796;BME280;57073;45.650;9.612;2022-12-07T13:25:41;98814.47;;;7.57;67.00
69796;BME280;57073;45.650;9.612;2022-12-07T13:35:44;98803.38;;;7.60;67.55
69796;BME280;57073;45.650;9.612;2022-12-07T13:45:55;98803.56;;;7.65;65.81
69796;BME280;57073;45.650;9.612;2022-12-07T13:55:57;98801.50;;;7.67;67.29
69796;BME280;57073;45.650;9.612;2022-12-07T14:06:15;98799.44;;;7.69;65.94
69796;BME280;57073;45.650;9.612;2022-12-07T14:16:42;98801.13;;;7.63;67.56
69796;BME280;57073;45.650;9.612;2022-12-07T14:26:44;98805.72;;;7.09;69.04
69796;BME280;57073;45.650;9.612;2022-12-07T14:36:46;98810.66;;;6.99;70.03
69796;BME280;57073;45.650;9.612;2022-12-07T14:46:48;98813.91;;;6.48;72.69
69796;BME280;57073;45.650;9.612;2022-12-07T14:56:48;98819.22;;;6.48;72.00
69796;BME280;57073;45.650;9.612;2022-12-07T15:06:59;98825.31;;;6.28;72.38
69796;BME280;57073;45.650;9.612;2022-12-07T15:17:00;98835.97;;;5.45;76.08
69796;BME280;57073;45.650;9.612;2022-12-07T15:27:01;98842.28;;;3.42;78.94
69796;BME280;57073;45.650;9.612;2022-12-07T15:37:01;98849.50;;;2.95;81.67
69796;BME280;57073;45.650;9.612;2022-12-07T15:47:02;98852.66;;;2.76;84.09
69796;BME280;57073;45.650;9.612;2022-12-07T15:57:03;98856.28;;;2.98;80.34
69796;BME280;57073;45.650;9.612;2022-12-07T16:07:04;98849.41;;;3.41;78.10
69796;BME280;57073;45.650;9.612;2022-12-07T16:17:05;98853.34;;;3.45;75.71
69796;BME280;57073;45.650;9.612;2022-12-07T16:27:05;98854.25;;;3.97;76.72
69796;BME280;57073;45.650;9.612;2022-12-07T16:37:06;98857.56;;;3.40;76.01
69796;BME280;57073;45.650;9.612;2022-12-07T16:47:06;98858.63;;;3.16;77.85
69796;BME280;57073;45.650;9.612;2022-12-07T16:57:07;98862.31;;;3.59;74.99
69796;BME280;57073;45.650;9.612;2022-12-07T17:07:07;98867.16;;;3.56;73.71
69796;BME280;57073;45.650;9.612;2022-12-07T17:17:08;98859.63;;;3.30;82.91
69796;BME280;57073;45.650;9.612;2022-12-07T17:27:08;98852.69;;;2.44;79.50
69796;BME280;57073;45.650;9.612;2022-12-07T17:37:09;98863.59;;;2.49;80.82
69796;BME280;57073;45.650;9.612;2022-12-07T17:47:09;98856.91;;;2.62;74.48
69796;BME280;57073;45.650;9.612;2022-12-07T17:57:10;98847.16;;;2.77;73.58
69796;BME280;57073;45.650;9.612;2022-12-07T18:07:10;98843.41;;;2.72;82.82
69796;BME280;57073;45.650;9.612;2022-12-07T18:17:11;98851.53;;;2.47;75.36
69796;BME280;57073;45.650;9.612;2022-12-07T18:27:11;98854.84;;;2.49;72.97
69796;BME280;57073;45.650;9.612;2022-12-07T18:37:11;98866.69;;;2.30;74.17
69796;BME280;57073;45.650;9.612;2022-12-07T18:47:12;98860.25;;;2.33;73.23
69796;BME280;57073;45.650;9.612;2022-12-07T18:57:12;98873.50;;;2.56;73.03
69796;BME280;57073;45.650;9.612;2022-12-07T19:07:12;98876.38;;;2.15;80.16
69796;BME280;57073;45.650;9.612;2022-12-07T19:17:13;98869.22;;;1.36;77.31
69796;BME280;57073;45.650;9.612;2022-12-07T19:27:14;98869.44;;;2.68;77.95
69796;BME280;57073;45.650;9.612;2022-12-07T19:37:15;98878.66;;;2.95;76.30
69796;BME280;57073;45.650;9.612;2022-12-07T19:47:15;98886.00;;;3.08;76.04
69796;BME280;57073;45.650;9.612;2022-12-07T19:57:16;98891.53;;;3.21;75.22
69796;BME280;57073;45.650;9.612;2022-12-07T20:07:17;98893.09;;;3.16;75.67
69796;BME280;57073;45.650;9.612;2022-12-07T20:17:17;98895.19;;;3.20;75.77
69796;BME280;57073;45.650;9.612;2022-12-07T20:27:18;98906.19;;;3.17;74.84
69796;BME280;57073;45.650;9.612;2022-12-07T20:37:18;98907.88;;;3.10;75.46
69796;BME280;57073;45.650;9.612;2022-12-07T20:47:18;98898.84;;;3.19;75.13
69796;BME280;57073;45.650;9.612;2022-12-07T20:57:19;98905.88;;;3.12;75.37
69796;BME280;57073;45.650;9.612;2022-12-07T21:07:19;98899.13;;;3.24;75.26
69796;BME280;57073;45.650;9.612;2022-12-07T21:17:19;98897.63;;;3.45;74.77
69796;BME280;57073;45.650;9.612;2022-12-07T21:27:20;98897.28;;;3.48;74.02
69796;BME280;57073;45.650;9.612;2022-12-07T21:37:20;98905.41;;;3.61;73.85
69796;BME280;57073;45.650;9.612;2022-12-07T21:47:20;98891.41;;;3.68;74.12
69796;BME280;57073;45.650;9.612;2022-12-07T21:57:21;98896.91;;;3.81;73.57
69796;BME280;57073;45.650;9.612;2022-12-07T22:07:21;98896.19;;;3.57;73.75
69796;BME280;57073;45.650;9.612;2022-12-07T22:17:21;98888.28;;;3.34;73.61
69796;BME280;57073;45.650;9.612;2022-12-07T22:27:22;98887.88;;;3.22;74.81
69796;BME280;57073;45.650;9.612;2022-12-07T22:37:22;98886.25;;;3.21;74.73
69796;BME280;57073;45.650;9.612;2022-12-07T22:47:23;98885.22;;;3.22;74.19
69796;BME280;57073;45.650;9.612;2022-12-07T22:57:23;98891.69;;;3.05;74.25
69796;BME280;57073;45.650;9.612;2022-12-07T23:07:23;98889.44;;;2.94;74.67
69796;BME280;57073;45.650;9.612;2022-12-07T23:17:24;98899.78;;;2.88;75.44
69796;BME280;57073;45.650;9.612;2022-12-07T23:27:24;98905.72;;;2.91;74.82
69796;BME280;57073;45.650;9.612;2022-12-07T23:37:24;98901.34;;;2.75;74.88
69796;BME280;57073;45.650;9.612;2022-12-07T23:47:25;98882.75;;;2.60;74.53
69796;BME280;57073;45.650;9.612;2022-12-07T23:57:25;98887.81;;;2.69;74.92
